createdAt,value
2017-10-01T00:00:59.676Z,98.90
2017-10-01T00:03:27.190Z,98.50
2017-10-01T00:05:54.671Z,98.30
2017-10-01T00:08:22.185Z,98.50
2017-10-01T00:10:49.680Z,98.70
2017-10-01T00:13:17.185Z,98.60
2017-10-01T00:15:44.672Z,98.90
2017-10-01T00:18:12.976Z,99.00
2017-10-01T00:20:40.464Z,99.00
2017-10-01T00:23:08.756Z,99.00
2017-10-01T00:25:36.251Z,99.00
2017-10-01T00:28:03.751Z,99.20
2017-10-01T00:30:31.227Z,98.90
2017-10-01T00:32:58.733Z,98.80
2017-10-01T00:35:26.215Z,98.80
2017-10-01T00:37:53.873Z,98.90
2017-10-01T00:40:21.359Z,98.80
2017-10-01T00:42:48.867Z,98.80
2017-10-01T00:45:16.347Z,98.60
2017-10-01T00:47:43.855Z,98.70
2017-10-01T00:50:11.349Z,98.80
2017-10-01T00:52:38.861Z,99.00
2017-10-01T00:55:07.116Z,99.10
2017-10-01T00:57:35.400Z,98.90
2017-10-01T01:00:02.905Z,98.90
2017-10-01T01:02:31.191Z,98.30
2017-10-01T01:04:58.712Z,98.30
2017-10-01T01:07:26.962Z,98.90
2017-10-01T01:09:54.475Z,98.90
2017-10-01T01:12:21.980Z,98.80
2017-10-01T01:14:49.483Z,98.70
2017-10-01T01:17:16.967Z,98.80
2017-10-01T01:19:44.476Z,98.70
2017-10-01T01:22:11.965Z,98.80
2017-10-01T01:24:39.464Z,98.80
2017-10-01T01:27:06.952Z,98.70
2017-10-01T01:29:34.451Z,99.10
2017-10-01T01:32:01.924Z,99.20
2017-10-01T01:34:29.437Z,99.00
2017-10-01T01:36:56.924Z,98.70
2017-10-01T01:39:24.425Z,98.70
2017-10-01T01:41:51.908Z,98.90
2017-10-01T01:44:20.200Z,99.30
2017-10-01T01:46:47.686Z,99.30
2017-10-01T01:49:15.196Z,99.20
2017-10-01T01:51:42.684Z,99.20
2017-10-01T01:54:10.196Z,99.00
2017-10-01T01:56:37.680Z,99.00
2017-10-01T01:59:05.180Z,99.30
2017-10-01T02:01:32.706Z,98.90
2017-10-01T02:04:00.281Z,98.80
2017-10-01T02:06:27.798Z,98.90
2017-10-01T02:08:55.310Z,99.00
2017-10-01T02:11:22.796Z,98.80
2017-10-01T02:13:50.355Z,98.70
2017-10-01T02:16:17.857Z,98.80
2017-10-01T02:18:45.383Z,98.70
2017-10-01T02:21:12.879Z,98.80
2017-10-01T02:23:41.147Z,99.00
2017-10-01T02:26:09.403Z,99.00
2017-10-01T02:28:37.679Z,98.90
2017-10-01T02:31:05.163Z,98.90
2017-10-01T02:33:32.691Z,98.70
2017-10-01T02:36:00.195Z,98.70
2017-10-01T02:38:28.451Z,98.80
2017-10-01T02:40:55.962Z,98.80
2017-10-01T02:43:23.447Z,99.10
2017-10-01T02:45:51.016Z,99.30
2017-10-01T02:48:18.512Z,99.30
2017-10-01T02:50:46.798Z,99.60
2017-10-01T02:53:14.295Z,99.50
2017-10-01T02:55:41.796Z,99.50
2017-10-01T02:58:09.324Z,99.40
2017-10-01T03:00:36.855Z,99.50
2017-10-01T03:03:05.117Z,99.90
2017-10-01T03:05:33.379Z,99.80
2017-10-01T03:08:01.632Z,99.60
2017-10-01T03:10:29.908Z,99.60
2017-10-01T03:12:57.400Z,99.60
2017-10-01T03:15:24.895Z,99.80
2017-10-01T03:17:52.384Z,99.90
2017-10-01T03:20:19.948Z,99.90
2017-10-01T03:22:47.464Z,99.90
2017-10-01T03:25:15.369Z,99.80
2017-10-01T03:27:42.864Z,99.90
2017-10-01T03:30:10.383Z,99.90
2017-10-01T03:32:37.877Z,99.90
2017-10-01T03:35:05.408Z,99.90
2017-10-01T03:37:32.903Z,99.90
2017-10-01T03:40:00.407Z,99.90
2017-10-01T03:42:27.902Z,99.90
2017-10-01T03:44:55.408Z,99.90
2017-10-01T03:47:22.905Z,99.90
2017-10-01T03:49:50.416Z,99.90
2017-10-01T03:52:17.895Z,99.90
2017-10-01T03:54:45.408Z,99.90
2017-10-01T03:57:12.893Z,99.90
2017-10-01T03:59:40.457Z,99.90
2017-10-01T04:02:08.720Z,99.90
2017-10-01T04:04:37.008Z,99.90
2017-10-01T04:07:04.504Z,99.90
2017-10-01T04:09:32.790Z,99.90
2017-10-01T04:12:00.288Z,99.90
2017-10-01T04:14:27.808Z,99.90
2017-10-01T04:16:55.308Z,99.90
2017-10-01T04:19:23.563Z,99.90
2017-10-01T04:21:51.836Z,99.90
2017-10-01T04:24:20.096Z,99.90
2017-10-01T04:26:47.607Z,99.90
2017-10-01T04:29:15.100Z,99.90
2017-10-01T04:31:42.693Z,99.90
2017-10-01T04:34:10.175Z,99.90
2017-10-01T04:36:37.682Z,99.90
2017-10-01T04:39:05.167Z,99.90
2017-10-01T04:41:32.678Z,99.90
2017-10-01T04:44:00.164Z,99.90
2017-10-01T04:46:27.673Z,99.90
2017-10-01T04:48:55.924Z,99.90
2017-10-01T04:51:23.436Z,99.90
2017-10-01T04:53:50.932Z,99.90
2017-10-01T04:56:18.435Z,99.90
2017-10-01T04:58:45.949Z,99.90
2017-10-01T05:01:13.457Z,99.90
2017-10-01T05:03:41.708Z,99.90
2017-10-01T05:06:09.228Z,99.90
2017-10-01T05:08:36.725Z,99.90
2017-10-01T05:11:04.249Z,99.90
2017-10-01T05:13:31.739Z,99.90
2017-10-01T05:15:59.240Z,99.90
2017-10-01T05:18:26.729Z,99.90
2017-10-01T05:20:54.233Z,99.90
2017-10-01T05:23:21.736Z,99.90
2017-10-01T05:25:49.248Z,99.90
2017-10-01T05:28:16.781Z,99.90
2017-10-01T05:30:44.287Z,99.90
2017-10-01T05:33:12.572Z,99.90
2017-10-01T05:35:40.088Z,99.90
2017-10-01T05:38:08.337Z,99.90
2017-10-01T05:40:36.607Z,99.90
2017-10-01T05:43:04.856Z,99.90
2017-10-01T05:45:33.135Z,99.90
2017-10-01T05:48:00.640Z,99.90
2017-10-01T05:50:28.158Z,99.90
2017-10-01T05:52:55.647Z,99.90
2017-10-01T05:55:23.957Z,99.90
2017-10-01T05:57:51.439Z,99.90
2017-10-01T06:00:18.943Z,99.90
2017-10-01T06:02:46.456Z,99.90
2017-10-01T06:05:13.953Z,99.90
2017-10-01T06:07:41.470Z,99.90
2017-10-01T06:10:08.950Z,99.90
2017-10-01T06:12:36.453Z,99.90
2017-10-01T06:15:03.945Z,99.90
2017-10-01T06:17:32.213Z,99.90
2017-10-01T06:20:00.456Z,99.80
2017-10-01T06:22:27.963Z,99.80
2017-10-01T06:24:55.443Z,99.70
2017-10-01T06:27:22.952Z,99.60
2017-10-01T06:29:50.450Z,99.90
2017-10-01T06:32:17.956Z,99.50
2017-10-01T06:34:45.440Z,99.80
2017-10-01T06:37:14.116Z,99.60
2017-10-01T06:39:41.617Z,99.60
2017-10-01T06:42:09.120Z,99.90
2017-10-01T06:44:36.598Z,99.90
2017-10-01T06:47:04.112Z,99.90
2017-10-01T06:49:31.592Z,99.70
2017-10-01T06:51:59.091Z,99.90
2017-10-01T06:54:26.576Z,99.90
2017-10-01T06:56:54.081Z,99.90
2017-10-01T06:59:21.572Z,99.90
2017-10-01T07:01:49.848Z,99.90
2017-10-01T07:04:17.339Z,99.90
2017-10-01T07:06:44.853Z,99.90
2017-10-01T07:09:12.336Z,99.70
2017-10-01T07:11:39.876Z,99.60
2017-10-01T07:14:07.378Z,99.60
2017-10-01T07:16:34.880Z,99.50
2017-10-01T07:19:02.804Z,99.30
2017-10-01T07:21:30.339Z,99.30
2017-10-01T07:23:57.833Z,99.20
2017-10-01T07:35:01.733Z,99.00
2017-10-01T07:37:29.244Z,99.40
2017-10-01T07:39:56.734Z,99.10
2017-10-01T07:42:24.255Z,98.90
2017-10-01T07:44:51.811Z,98.60
2017-10-01T07:47:20.097Z,98.90
2017-10-01T07:49:47.599Z,98.90
2017-10-01T07:52:15.119Z,98.70
2017-10-01T07:54:42.607Z,99.00
2017-10-01T07:57:10.550Z,98.50
2017-10-01T07:59:38.048Z,98.50
2017-10-01T08:02:05.559Z,99.10
2017-10-01T08:04:33.080Z,99.10
2017-10-01T08:07:00.580Z,99.10
2017-10-01T08:09:28.068Z,98.90
2017-10-01T08:11:55.580Z,98.60
2017-10-01T08:14:23.064Z,98.80
2017-10-01T08:16:50.624Z,98.70
2017-10-01T08:19:18.117Z,98.80
2017-10-01T08:21:46.396Z,98.30
2017-10-01T08:24:13.903Z,98.30
2017-10-01T08:26:41.776Z,98.00
2017-10-01T08:29:14.633Z,98.40
2017-10-01T08:31:42.149Z,98.60
2017-10-01T08:34:09.798Z,98.50
2017-10-01T08:36:37.344Z,98.10
2017-10-01T08:39:15.626Z,97.90
2017-10-01T08:42:02.754Z,98.00
2017-10-01T08:44:51.626Z,97.70
2017-10-01T08:47:19.184Z,96.90
2017-10-01T08:49:46.763Z,96.90
2017-10-01T08:52:14.292Z,96.90
2017-10-01T08:54:42.700Z,96.40
2017-10-01T09:00:17.604Z,95.90
2017-10-01T09:08:40.505Z,95.20
2017-10-01T09:19:55.960Z,94.70
2017-10-01T09:22:23.742Z,93.50
2017-10-01T09:24:51.342Z,93.20
2017-10-01T09:30:12.148Z,93.30
2017-10-01T09:32:39.796Z,93.30
2017-10-01T09:38:00.593Z,94.50
2017-10-01T09:40:28.393Z,93.70
2017-10-01T09:42:56.066Z,93.40
2017-10-01T09:45:23.848Z,92.60
2017-10-01T09:47:51.584Z,93.10
2017-10-01T09:50:19.299Z,93.40
2017-10-01T09:52:47.104Z,93.00
2017-10-01T09:55:14.816Z,93.00
2017-10-01T09:57:42.633Z,93.20
2017-10-01T10:00:10.409Z,93.00
2017-10-01T10:03:01.650Z,93.10
2017-10-01T10:05:29.312Z,93.00
2017-10-01T10:07:57.993Z,92.50
2017-10-01T10:10:26.834Z,93.00
2017-10-01T10:12:56.888Z,92.80
2017-10-01T10:15:29.453Z,92.80
2017-10-01T10:17:57.378Z,92.40
2017-10-01T10:20:25.239Z,92.70
2017-10-01T10:22:53.011Z,92.70
2017-10-01T10:25:20.628Z,92.20
2017-10-01T10:27:48.610Z,92.60
2017-10-01T10:30:38.108Z,93.10
2017-10-01T10:33:05.866Z,92.70
2017-10-01T10:35:33.586Z,92.70
2017-10-01T10:40:54.760Z,93.40
2017-10-01T10:43:22.995Z,93.30
2017-10-01T10:45:51.440Z,92.70
2017-10-01T10:48:27.373Z,92.60
2017-10-01T10:50:55.106Z,91.40
2017-10-01T10:53:23.591Z,91.30
2017-10-01T10:55:54.082Z,91.50
2017-10-01T10:58:22.497Z,91.50
2017-10-01T11:00:52.182Z,91.20
2017-10-01T11:03:20.099Z,91.20
2017-10-01T11:05:48.126Z,91.30
2017-10-01T11:08:15.841Z,91.40
2017-10-01T11:10:43.610Z,91.40
2017-10-01T11:13:11.258Z,91.60
2017-10-01T11:15:39.026Z,90.50
2017-10-01T11:18:06.901Z,90.40
2017-10-01T11:20:36.558Z,90.50
2017-10-01T11:23:04.566Z,90.40
2017-10-01T11:25:33.611Z,90.70
2017-10-01T11:28:04.095Z,90.50
2017-10-01T11:30:32.141Z,90.50
2017-10-01T11:32:59.745Z,90.80
2017-10-01T11:35:28.024Z,90.10
2017-10-01T11:37:56.278Z,89.70
2017-10-01T11:40:28.969Z,89.50
2017-10-01T11:42:56.459Z,88.90
2017-10-01T11:45:23.968Z,88.10
2017-10-01T11:47:51.460Z,88.90
2017-10-01T11:50:18.968Z,89.00
2017-10-01T11:52:46.465Z,89.30
2017-10-01T11:55:13.985Z,90.00
2017-10-01T11:57:41.471Z,90.10
2017-10-01T12:00:08.984Z,90.20
2017-10-01T12:02:36.468Z,90.10
2017-10-01T12:05:03.989Z,90.00
2017-10-01T12:07:31.492Z,89.90
2017-10-01T12:09:59.020Z,89.90
2017-10-01T12:12:26.519Z,89.30
2017-10-01T12:15:11.211Z,90.10
2017-10-01T12:17:38.716Z,90.10
2017-10-01T12:20:06.228Z,89.10
2017-10-01T12:22:34.485Z,88.90
2017-10-01T12:25:01.996Z,88.70
2017-10-01T12:27:31.303Z,89.60
2017-10-01T12:29:59.575Z,89.30
2017-10-01T12:32:27.120Z,89.30
2017-10-01T12:34:54.631Z,88.30
2017-10-01T12:37:22.905Z,88.50
2017-10-01T12:39:50.413Z,88.50
2017-10-01T12:42:17.908Z,89.00
2017-10-01T12:44:45.430Z,86.80
2017-10-01T12:47:13.683Z,87.80
2017-10-01T12:49:41.203Z,87.70
2017-10-01T12:52:09.457Z,87.90
2017-10-01T12:54:37.025Z,87.90
2017-10-01T12:57:04.528Z,86.20
2017-10-01T12:59:43.937Z,85.90
2017-10-01T13:02:11.441Z,85.80
2017-10-01T13:04:38.927Z,86.50
2017-10-01T13:07:06.431Z,87.00
2017-10-01T13:09:35.200Z,88.30
2017-10-01T13:12:02.714Z,88.20
2017-10-01T13:14:30.203Z,88.30
2017-10-01T13:16:57.711Z,89.30
2017-10-01T13:19:25.208Z,88.40
2017-10-01T13:21:52.732Z,89.10
2017-10-01T13:24:21.008Z,87.10
2017-10-01T13:26:49.308Z,86.00
2017-10-01T13:29:17.573Z,85.20
2017-10-01T13:31:45.089Z,85.20
2017-10-01T13:34:12.582Z,85.90
2017-10-01T13:36:40.096Z,85.90
2017-10-01T13:39:07.592Z,86.20
2017-10-01T13:41:35.855Z,86.00
2017-10-01T13:44:03.345Z,85.90
2017-10-01T13:46:31.616Z,86.50
2017-10-01T13:48:59.881Z,85.60
2017-10-01T13:51:27.381Z,85.60
2017-10-01T13:53:54.864Z,86.30
2017-10-01T13:56:23.142Z,88.00
2017-10-01T13:58:51.396Z,86.20
2017-10-01T14:01:19.013Z,86.00
2017-10-01T14:03:48.329Z,86.00
2017-10-01T14:06:15.849Z,85.90
2017-10-01T14:08:43.463Z,84.80
2017-10-01T14:11:11.745Z,86.40
2017-10-01T14:13:40.000Z,86.70
2017-10-01T14:16:07.513Z,86.70
2017-10-01T14:18:35.763Z,86.30
2017-10-01T14:21:03.268Z,86.20
2017-10-01T14:23:31.524Z,87.30
2017-10-01T14:26:00.016Z,87.10
2017-10-01T14:28:27.504Z,85.70
2017-10-01T14:31:00.608Z,84.90
2017-10-01T14:33:28.100Z,84.70
2017-10-01T14:35:56.400Z,87.00
2017-10-01T14:38:23.899Z,87.00
2017-10-01T14:40:51.452Z,87.10
2017-10-01T14:43:18.959Z,87.80
2017-10-01T14:45:46.444Z,87.00
2017-10-01T14:48:13.999Z,85.30
2017-10-01T14:50:41.515Z,86.00
2017-10-01T14:53:09.061Z,87.00
2017-10-01T14:55:36.546Z,87.10
2017-10-01T14:58:04.815Z,87.40
2017-10-01T15:00:32.329Z,87.40
2017-10-01T15:02:59.837Z,86.50
2017-10-01T15:05:27.320Z,87.30
2017-10-01T15:07:54.827Z,86.50
2017-10-01T15:10:23.078Z,87.60
2017-10-01T15:12:50.584Z,87.40
2017-10-01T15:15:18.836Z,86.50
2017-10-01T15:17:46.348Z,86.40
2017-10-01T15:20:13.836Z,86.90
2017-10-01T15:22:41.397Z,87.70
2017-10-01T15:25:08.901Z,88.20
2017-10-01T15:27:36.433Z,87.70
2017-10-01T15:30:03.933Z,87.40
2017-10-01T15:32:31.590Z,88.00
2017-10-01T15:34:59.080Z,88.80
2017-10-01T15:37:26.592Z,89.10
2017-10-01T15:39:54.100Z,89.20
2017-10-01T15:42:21.610Z,89.20
2017-10-01T15:44:49.100Z,89.60
2017-10-01T15:47:16.631Z,90.00
2017-10-01T15:49:44.133Z,90.20
2017-10-01T15:52:11.654Z,90.20
2017-10-01T15:54:39.163Z,90.00
2017-10-01T15:57:06.660Z,90.20
2017-10-01T15:59:34.171Z,90.30
2017-10-01T16:02:01.667Z,90.50
2017-10-01T16:04:29.179Z,90.50
2017-10-01T16:06:57.455Z,90.70
2017-10-01T16:09:25.748Z,90.60
2017-10-01T16:11:54.000Z,90.60
2017-10-01T16:14:21.516Z,90.30
2017-10-01T16:16:54.144Z,90.50
2017-10-01T16:19:22.420Z,90.50
2017-10-01T16:21:49.918Z,90.50
2017-10-01T16:24:17.423Z,90.40
2017-10-01T16:26:45.676Z,90.30
2017-10-01T16:29:13.188Z,90.30
2017-10-01T16:31:40.687Z,89.00
2017-10-01T16:34:08.200Z,89.90
2017-10-01T16:36:35.689Z,90.40
2017-10-01T16:39:03.968Z,90.30
2017-10-01T16:41:31.458Z,90.30
2017-10-01T16:43:59.735Z,90.30
2017-10-01T16:46:27.238Z,90.20
2017-10-01T16:48:54.755Z,90.50
2017-10-01T16:51:22.249Z,90.30
2017-10-01T16:53:50.528Z,92.20
2017-10-01T16:56:18.022Z,92.20
2017-10-01T16:58:46.299Z,93.90
2017-10-01T17:01:14.557Z,94.40
2017-10-01T17:03:42.063Z,94.40
2017-10-01T17:06:10.316Z,94.70
2017-10-01T17:08:37.826Z,94.70
2017-10-01T17:11:06.091Z,95.00
2017-10-01T17:13:33.610Z,95.00
2017-10-01T17:16:01.099Z,95.10
2017-10-01T17:18:28.592Z,95.30
2017-10-01T17:20:56.096Z,95.60
2017-10-01T17:23:24.351Z,95.40
2017-10-01T17:25:51.878Z,95.40
2017-10-01T17:28:19.364Z,95.00
2017-10-01T17:30:46.875Z,94.90
2017-10-01T17:33:14.356Z,95.10
2017-10-01T17:35:42.628Z,95.40
2017-10-01T17:38:10.120Z,95.40
2017-10-01T17:40:38.395Z,95.10
2017-10-01T17:43:05.889Z,95.10
2017-10-01T17:45:33.388Z,94.90
2017-10-01T17:48:00.872Z,94.90
2017-10-01T17:50:28.388Z,94.90
2017-10-01T17:52:56.651Z,94.90
2017-10-01T17:55:24.157Z,94.90
2017-10-01T17:57:51.636Z,94.70
2017-10-01T18:00:19.139Z,94.70
2017-10-01T18:02:46.628Z,94.50
2017-10-01T18:05:14.141Z,94.40
2017-10-01T18:07:41.627Z,94.60
2017-10-01T18:10:09.131Z,94.70
2017-10-01T18:12:36.615Z,94.80
2017-10-01T18:15:04.120Z,94.60
2017-10-01T18:17:31.607Z,94.70
2017-10-01T18:19:59.128Z,94.90
2017-10-01T18:22:26.617Z,95.20
2017-10-01T18:24:54.873Z,95.10
2017-10-01T18:27:22.382Z,95.10
2017-10-01T18:29:49.873Z,95.20
2017-10-01T18:32:17.380Z,95.20
2017-10-01T18:34:44.869Z,95.50
2017-10-01T18:37:12.374Z,95.20
2017-10-01T18:39:39.860Z,95.40
2017-10-01T18:42:07.376Z,95.40
2017-10-01T18:44:34.864Z,95.30
2017-10-01T18:47:03.137Z,95.50
2017-10-01T18:49:30.627Z,95.40
2017-10-01T18:51:58.920Z,95.80
2017-10-01T18:54:27.187Z,96.00
2017-10-01T18:56:54.702Z,96.00
2017-10-01T18:59:22.196Z,96.20
2017-10-01T19:01:49.703Z,96.10
2017-10-01T19:04:17.959Z,95.70
2017-10-01T19:06:45.464Z,95.70
2017-10-01T19:09:13.716Z,95.70
2017-10-01T19:11:41.227Z,95.70
2017-10-01T19:14:09.484Z,95.90
2017-10-01T19:16:36.996Z,95.80
2017-10-01T19:19:04.503Z,95.90
2017-10-01T19:21:31.989Z,96.00
2017-10-01T19:23:59.496Z,96.10
2017-10-01T19:26:27.755Z,96.10
2017-10-01T19:28:55.259Z,96.10
2017-10-01T19:31:23.511Z,96.10
2017-10-01T19:33:51.011Z,96.00
2017-10-01T19:36:19.267Z,95.80
2017-10-01T19:38:46.844Z,95.80
2017-10-01T19:41:14.323Z,95.50
2017-10-01T19:43:58.609Z,95.30
2017-10-01T19:46:26.860Z,95.50
2017-10-01T19:48:54.364Z,95.50
2017-10-01T19:51:22.615Z,94.70
2017-10-01T19:53:50.127Z,94.70
2017-10-01T19:56:18.376Z,94.40
2017-10-01T19:58:45.887Z,94.30
2017-10-01T20:01:14.140Z,93.70
2017-10-01T20:03:41.653Z,93.80
2017-10-01T20:06:09.136Z,93.80
2017-10-01T20:08:36.635Z,93.70
2017-10-01T20:11:04.124Z,93.70
2017-10-01T20:13:31.633Z,93.60
2017-10-01T20:15:59.119Z,93.40
2017-10-01T20:18:26.640Z,93.30
2017-10-01T20:20:54.126Z,92.90
2017-10-01T20:23:22.380Z,92.90
2017-10-01T20:25:49.884Z,92.80
2017-10-01T20:28:17.367Z,92.60
2017-10-01T20:30:44.876Z,92.70
2017-10-01T20:33:12.367Z,92.70
2017-10-01T20:35:39.864Z,92.70
2017-10-01T20:38:08.117Z,92.70
2017-10-01T20:40:35.619Z,92.60
2017-10-01T20:43:03.868Z,92.50
2017-10-01T20:45:31.368Z,92.50
2017-10-01T20:47:58.860Z,92.50
2017-10-01T20:50:26.371Z,92.50
2017-10-01T20:52:53.847Z,92.30
2017-10-01T20:55:21.349Z,91.90
2017-10-01T20:57:48.831Z,91.90
2017-10-01T21:00:17.107Z,92.00
2017-10-01T21:02:44.597Z,92.00
2017-10-01T21:05:12.863Z,91.80
2017-10-01T21:07:40.355Z,91.90
2017-10-01T21:10:08.632Z,91.60
2017-10-01T21:12:36.884Z,91.50
2017-10-01T21:15:04.387Z,91.50
2017-10-01T21:17:32.636Z,91.70
2017-10-01T21:20:00.130Z,91.40
2017-10-01T21:22:27.636Z,91.40
2017-10-01T21:24:55.123Z,91.40
2017-10-01T21:27:22.627Z,91.30
2017-10-01T21:29:50.113Z,90.70
2017-10-01T21:32:17.621Z,91.10
2017-10-01T21:34:45.112Z,90.90
2017-10-01T21:37:12.615Z,91.00
2017-10-01T21:39:40.112Z,90.80
2017-10-01T21:42:08.399Z,90.50
2017-10-01T21:44:36.655Z,90.40
2017-10-01T21:47:04.159Z,90.40
2017-10-01T21:49:32.408Z,90.40
2017-10-01T21:51:59.912Z,90.40
2017-10-01T21:54:28.167Z,90.50
2017-10-01T21:56:55.672Z,90.40
2017-10-01T21:59:23.919Z,90.50
2017-10-01T22:01:51.456Z,90.50
2017-10-01T22:04:18.944Z,90.60
2017-10-01T22:06:47.211Z,91.00
2017-10-01T22:09:14.700Z,91.00
2017-10-01T22:11:42.204Z,90.90
2017-10-01T22:14:09.707Z,90.90
2017-10-01T22:16:37.988Z,92.00
2017-10-01T22:19:05.476Z,91.90
2017-10-01T22:21:32.963Z,91.30
2017-10-01T22:24:00.473Z,91.50
2017-10-01T22:26:27.965Z,91.70
2017-10-01T22:28:56.246Z,92.30
2017-10-01T22:31:23.737Z,92.30
2017-10-01T22:33:52.012Z,92.70
2017-10-01T22:36:20.268Z,93.00
2017-10-01T22:38:47.772Z,92.90
2017-10-01T22:41:16.024Z,93.20
2017-10-01T22:43:43.532Z,93.10
2017-10-01T22:46:11.797Z,93.30
2017-10-01T22:48:39.308Z,93.30
2017-10-01T22:51:06.795Z,93.70
2017-10-01T22:53:34.304Z,93.70
2017-10-01T22:56:01.800Z,93.60
2017-10-01T22:58:29.309Z,94.10
2017-10-01T23:00:56.799Z,93.80
2017-10-01T23:03:24.311Z,94.10
2017-10-01T23:05:52.564Z,94.30
2017-10-01T23:08:20.072Z,94.30
2017-10-01T23:10:48.323Z,94.70
2017-10-01T23:13:15.842Z,94.70
2017-10-01T23:15:43.333Z,94.70
2017-10-01T23:18:10.823Z,94.90
2017-10-01T23:20:38.331Z,95.10
2017-10-01T23:23:06.592Z,94.90
2017-10-01T23:25:34.100Z,94.90
2017-10-01T23:28:02.351Z,95.10
2017-10-01T23:30:29.859Z,95.00
2017-10-01T23:32:58.116Z,95.30
2017-10-01T23:35:25.633Z,95.20
2017-10-01T23:37:53.124Z,95.30
2017-10-01T23:40:20.640Z,95.70
2017-10-01T23:42:48.123Z,95.60
2017-10-01T23:45:16.395Z,95.50
2017-10-01T23:47:43.891Z,95.50
2017-10-01T23:50:12.169Z,95.80
2017-10-01T23:52:40.416Z,95.60
2017-10-01T23:55:07.919Z,95.60
2017-10-01T23:57:35.407Z,95.90
